Sunday, June 26, 2016, 8:21 PM EDT

KEZF, Fredericksburg, Shannon Airport

Location: Fredericksburg, VA, United States Lat: 38.267
Local Time: 8:21 PM EDT ( 0:21 GMT) Lon: -77.45
Time Zone: US/Eastern Elev: 85 ft

Show me the last for .
Show Decoded

2016-06-26 19:55 METAR KEZF 262355Z AUTO 10003KT 10SM CLR 26/12 A3012 RMK AO2 T02600116 10300
                 20260 =
2016-06-26 19:35 METAR KEZF 262335Z AUTO 12004KT 10SM CLR 27/11 A3013 RMK AO2 T02660112 =
2016-06-26 19:15 METAR KEZF 262315Z AUTO 13005KT 10SM CLR 27/11 A3012 RMK AO2 T02710110 =
2016-06-26 18:55 METAR KEZF 262255Z AUTO 14007KT 10SM CLR 28/11 A3013 RMK AO2 T02790113 =
2016-06-26 18:35 METAR KEZF 262235Z AUTO 12007KT 10SM CLR 28/13 A3014 RMK AO2 T02800125 =
2016-06-26 18:15 METAR KEZF 262215Z AUTO 11005KT 10SM CLR 29/13 A3014 RMK AO2 T02850133 =
2016-06-26 17:55 METAR KEZF 262155Z AUTO 12005KT 10SM CLR 29/13 A3014 RMK AO2 T02850128 =
2016-06-26 17:35 METAR KEZF 262135Z AUTO 12003KT 10SM CLR 29/12 A3015 RMK AO2 T02880118 =
2016-06-26 17:15 METAR KEZF 262115Z AUTO 10006KT 10SM CLR 29/11 A3016 RMK AO2 T02880105 =
2016-06-26 16:55 METAR KEZF 262055Z AUTO 11007KT 10SM CLR 29/10 A3016 RMK AO2 T02890104 =
2016-06-26 16:35 METAR KEZF 262035Z AUTO 11009KT 070V160 10SM CLR 29/11 A3017 RMK AO2 T02910109 =
2016-06-26 16:10 METAR KEZF 262010Z AUTO 10005KT 10SM 29/12 A3017 RMK AO2 T02920123 =
2016-06-26 15:55 METAR KEZF 261955Z AUTO 15006KT 10SM 29/12 A3017 RMK AO2 T02930119 =
2016-06-26 15:35 METAR KEZF 261935Z AUTO 14007KT 10SM 30/12 A3017 RMK AO2 T02990124 =
2016-06-26 15:15 METAR KEZF 261915Z AUTO 09008KT 080V140 10SM 29/14 A3018 RMK AO2 T02920137 =
2016-06-26 14:55 METAR KEZF 261855Z AUTO 15004KT 10SM 29/13 A3019 RMK AO2 T02940127 =
2016-06-26 14:35 METAR KEZF 261835Z AUTO 06009KT 10SM CLR 29/13 A3020 RMK AO2 T02920134 =
2016-06-26 14:15 METAR KEZF 261815Z AUTO 10006KT 10SM CLR 29/13 A3021 RMK AO2 T02910128 =
2016-06-26 13:55 METAR KEZF 261755Z AUTO 15005KT 10SM CLR 29/12 A3021 RMK AO2 T02900120 10290
                 20189 =
2016-06-26 13:35 METAR KEZF 261735Z AUTO 08005KT 10SM CLR 28/15 A3021 RMK AO2 T02840148 =
2016-06-26 13:15 METAR KEZF 261715Z AUTO 12004KT 10SM CLR 29/14 A3022 RMK AO2 T02870142 =
2016-06-26 12:55 METAR KEZF 261655Z AUTO 12006KT 10SM CLR 29/16 A3022 RMK AO2 T02870155 =
2016-06-26 12:35 METAR KEZF 261635Z AUTO 00000KT 10SM CLR 28/15 A3022 RMK AO2 T02780153 =
2016-06-26 12:15 METAR KEZF 261615Z AUTO 00000KT 10SM CLR 27/16 A3022 RMK AO2 T02740157 =
2016-06-26 11:55 METAR KEZF 261555Z AUTO 00000KT 10SM CLR 27/18 A3022 RMK AO2 T02720177 =
2016-06-26 11:35 METAR KEZF 261535Z AUTO 00000KT 10SM CLR 27/17 A3022 RMK AO2 T02650168 =
2016-06-26 11:15 METAR KEZF 261515Z AUTO 11004KT 10SM CLR 27/17 A3022 RMK AO2 T02660173 =
2016-06-26 10:55 METAR KEZF 261455Z AUTO 00000KT 10SM CLR 26/17 A3023 RMK AO2 T02600166 =
2016-06-26 10:35 METAR KEZF 261435Z AUTO 06003KT 10SM CLR 26/16 A3022 RMK AO2 T02580160 =
2016-06-26 10:15 METAR KEZF 261415Z AUTO 00000KT 10SM CLR 25/16 A3023 RMK AO2 T02540158 =
2016-06-26 09:55 METAR KEZF 261355Z AUTO 00000KT 10SM CLR 25/15 A3022 RMK AO2 T02500145 =
2016-06-26 09:35 METAR KEZF 261335Z AUTO 00000KT 10SM CLR 24/17 A3022 RMK AO2 T02370174 =
2016-06-26 09:15 METAR KEZF 261315Z AUTO 00000KT 10SM CLR 23/20 A3022 RMK AO2 T02270198 =
2016-06-26 08:55 METAR KEZF 261255Z AUTO 00000KT 10SM CLR 22/20 A3021 RMK AO2 T02170201 =
2016-06-26 08:35 METAR KEZF 261235Z AUTO 00000KT 10SM CLR 20/20 A3021 RMK AO2 T02040204 =
2016-06-26 08:15 METAR KEZF 261215Z AUTO 00000KT 10SM CLR 20/20 A3021 RMK AO2 T01970197 =
2016-06-26 07:55 METAR KEZF 261155Z AUTO 00000KT 10SM CLR 19/19 A3021 RMK AO2 T01880188 10188
                 20161 =
2016-06-26 07:35 METAR KEZF 261135Z AUTO 00000KT 10SM CLR 18/18 A3022 RMK AO2 T01830183 =
2016-06-26 07:15 METAR KEZF 261115Z AUTO 00000KT 10SM CLR 18/18 A3022 RMK AO2 T01750175 =
2016-06-26 06:55 METAR KEZF 261055Z AUTO 00000KT 10SM CLR 17/17 A3022 RMK AO2 T01700170 =
2016-06-26 06:35 METAR KEZF 261035Z AUTO 00000KT 10SM CLR 16/16 A3022 RMK AO2 T01620162 =
2016-06-26 06:15 METAR KEZF 261015Z AUTO 00000KT 10SM CLR 16/16 A3022 RMK AO2 T01620162 =
2016-06-26 05:55 METAR KEZF 260955Z AUTO 00000KT 10SM CLR 16/16 A3022 RMK AO2 T01610161 =
2016-06-26 05:35 METAR KEZF 260935Z AUTO 00000KT 10SM CLR 16/16 A3022 RMK AO2 T01610161 =
2016-06-26 05:15 METAR KEZF 260915Z AUTO 00000KT 10SM CLR 17/17 A3022 RMK AO2 T01650165 =
2016-06-26 04:55 METAR KEZF 260855Z AUTO 00000KT 10SM CLR 17/17 A3023 RMK AO2 T01650165 =
2016-06-26 04:35 METAR KEZF 260835Z AUTO 00000KT 10SM CLR 17/17 A3023 RMK AO2 T01700170 =
2016-06-26 04:15 METAR KEZF 260815Z AUTO 00000KT 10SM CLR 17/17 A3022 RMK AO2 T01670167 =
2016-06-26 03:55 METAR KEZF 260755Z AUTO 00000KT 10SM CLR 17/17 A3022 RMK AO2 T01680168 =
2016-06-26 03:35 METAR KEZF 260735Z AUTO 00000KT 10SM CLR 17/17 A3022 RMK AO2 T01730173 =
2016-06-26 03:15 METAR KEZF 260715Z AUTO 00000KT 10SM CLR 17/17 A3021 RMK AO2 T01730173 =
2016-06-26 02:55 METAR KEZF 260655Z AUTO 00000KT 10SM CLR 18/18 A3021 RMK AO2 T01750175 =
2016-06-26 02:35 METAR KEZF 260635Z AUTO 00000KT 10SM CLR 18/18 A3020 RMK AO2 T01780178 =
2016-06-26 02:15 METAR KEZF 260615Z AUTO 00000KT 10SM CLR 18/18 A3019 RMK AO2 T01780178 =
2016-06-26 01:55 METAR KEZF 260555Z AUTO 00000KT 10SM CLR 18/18 A3019 RMK AO2 T01800180 10261
                 20180 402900180 =
2016-06-26 01:35 METAR KEZF 260535Z AUTO 00000KT 10SM CLR 18/18 A3019 RMK AO2 T01820182 =
2016-06-26 01:15 METAR KEZF 260515Z AUTO 00000KT 10SM CLR 19/19 A3019 RMK AO2 T01860186 =
2016-06-26 00:55 METAR KEZF 260455Z AUTO 00000KT 10SM CLR 19/19 A3019 RMK AO2 T01860186 =
2016-06-26 00:35 METAR KEZF 260435Z AUTO 00000KT 10SM CLR 19/19 A3020 RMK AO2 T01910191 =
2016-06-26 00:15 METAR KEZF 260415Z AUTO 00000KT 10SM CLR 20/20 A3020 RMK AO2 T01950195 =
2016-06-25 23:55 METAR KEZF 260355Z AUTO 00000KT 10SM CLR 20/20 A3019 RMK AO2 T01960196 =
2016-06-25 23:35 METAR KEZF 260335Z AUTO 00000KT 10SM CLR 20/19 A3019 RMK AO2 T01950185 =
2016-06-25 23:15 METAR KEZF 260315Z AUTO 00000KT 10SM CLR 20/18 A3019 RMK AO2 T01980184 =
2016-06-25 22:55 METAR KEZF 260255Z AUTO 00000KT 10SM CLR 20/18 A3019 RMK AO2 T02010183 =
2016-06-25 22:35 METAR KEZF 260235Z AUTO 00000KT 10SM CLR 21/19 A3019 RMK AO2 T02060185 =
2016-06-25 22:15 METAR KEZF 260215Z AUTO 00000KT 10SM CLR 21/19 A3019 RMK AO2 T02050185 =
2016-06-25 21:55 METAR KEZF 260155Z AUTO 00000KT 10SM CLR 21/19 A3019 RMK AO2 T02130191 =
2016-06-25 21:35 METAR KEZF 260135Z AUTO 00000KT 10SM CLR 22/19 A3019 RMK AO2 T02150187 =
2016-06-25 21:15 METAR KEZF 260115Z AUTO 00000KT 10SM CLR 23/19 A3018 RMK AO2 T02280190 =
2016-06-25 20:55 METAR KEZF 260055Z AUTO 00000KT 10SM CLR 24/19 A3018 RMK AO2 T02380189 =
2016-06-25 20:35 METAR KEZF 260035Z AUTO 00000KT 10SM CLR 25/19 A3017 RMK AO2 T02460185 =

Support USWX by starting your Amazon purchase here.